Aérodrome :
LOGIN :

S'inscrire | Disclaimer

   EN    FR    IT 

 










Légende :    VFR   VFR Marginal   IFR   IFR Intensif   IFR Très Intensif
Visi : 
Plafond : 
>= 8 km
>= 3000ft
5 à 8 km
1000 à 3000 ft
1500m à 5 km
500 à 1000 ft
800 à 1500m
200 à 500 ft
< 800m
< 200 ft
Symboles :   Orages  Brouillard  Fortes neiges  Fortes précipitations  Vent > 20 kt
SIGMETs :   Divers  Orages  Givrage  Turbulence  Onde Orograph.  Cendres Volcan.






- Altitude de l'aérodrome : 49 ft
- Code IATA : GLZ


EHGR - Gilze-Rijen Airbase

DERNIER METAR :
  • 281525Z AUTO 25013KT 220V290 9999 FEW031 SCT036 BKN041 06/00 Q0997 BLU

METARs EXPIRÉS :
  • 281513Z AUTO 25012G25KT 220V280 9999 FEW029 SCT034 BKN040 06/00 Q0997 BLU
  • 281455Z AUTO 25013KT 220V290 9999 SCT025 SCT029 BKN032 06/01 Q0997 BLU 25015G25KT 9999 FEW025 SCT030 TEMPO 4500 RA SHRA FEW010 SCT015CB SCT020
  • 281425Z AUTO 25016KT 230V290 9999 FEW027 SCT030 BKN047 06/01 Q0996 BLU 25015G25KT 9999 FEW025 SCT030 TEMPO 4500 RA SHRA FEW010 SCT015CB SCT020
  • 281355Z AUTO 25013G25KT 230V290 9999 SCT025 BKN029 BKN034 06/01 Q0996 BLU 25015G25KT 9999 FEW025 SCT030 TEMPO 4500 RA SHRA FEW010 SCT015CB SCT020
  • 281325Z AUTO 26013G23KT 230V290 9999 FEW028 SCT043 BKN052 07/01 Q0995 BLU 25015G25KT 9999 FEW025 SCT030 TEMPO 4500 RA SHRA FEW010 SCT015CB SCT020
  • 281255Z AUTO 26013G23KT 220V290 9999 FEW061 BKN170 05/00 Q0995 BLU 25015G25KT 9999 FEW025 SCT030 TEMPO 4500 RA SHRA FEW010 SCT015CB SCT020
  • 281230Z AUTO 26016G29KT 230V310 9999 FEW025 BKN029 BKN034 06/00 Q0995 BLU 25015G25KT 9999 FEW025 SCT030 TEMPO 4500 RA SHRA FEW010 SCT015CB SCT020

TAF TAF EHGR
Valide du 28 à 14h jusqu'au 29 à 02h UTC


281302Z 2814/2902 22015G25KT 9999 SCT025
TEMPO 2814/2818 25020G35KT
TEMPO 2814/2902 FEW018CB BKN020



MET'MAP, la Météo Aéronautique d'un coup d'oeil ! - Copyright ORBIFLY Décembre 2007 - Disclaimer

ORBIFLY MET'MAP TEAM :

Programmation & Développement : Alexandra Zaïnal
Sur une idée originale de : Baudouin d'Aumeries
Assistance à la programmation : Marc-Olivier Méhu
Soutien technique & logistique : Manuel Goepfert

Contact : metmap@orbifly.com




SOURCES & CREDITS :

   NOAA